Time;durP1;ratioP1;P1;durP2;ratioP2;P2;SDS_P1;SDS_P2;PMS_P1;PMS_P2;Temp;Humidity;BMP_temperature;BMP_pressure;BME280_temperature;BME280_humidity;BME280_pressure;Samples;Min_cycle;Max_cycle;Signal;HPM_P1;HPM_P2
2022/08/20 00:02:09;;;;;;;;;8.60;8.00;;;;;21.66;56.57;99729.50;5075409;28;8983;-64
2022/08/20 00:04:36;;;;;;;;;12.40;12.20;;;;;21.60;56.55;99730.25;5075006;28;8848;-62
2022/08/20 00:07:06;;;;;;;;;9.00;8.00;;;;;21.54;56.83;99725.63;5091148;28;8860;-62
2022/08/20 00:09:34;;;;;;;;;13.80;11.60;;;;;21.49;56.76;99731.63;5094059;28;8965;-62
2022/08/20 00:12:03;;;;;;;;;6.60;5.80;;;;;21.47;56.70;99732.88;5094822;28;8818;-62
2022/08/20 00:14:31;;;;;;;;;13.00;12.00;;;;;21.42;57.10;99735.34;5095307;28;8842;-62
2022/08/20 00:17:00;;;;;;;;;11.80;10.20;;;;;21.40;57.62;99737.44;5078996;28;8824;-63
2022/08/20 00:19:29;;;;;;;;;11.20;8.40;;;;;21.40;57.54;99732.00;5074815;28;8832;-62
2022/08/20 00:21:57;;;;;;;;;11.40;11.40;;;;;21.39;57.63;99735.72;5075127;28;8844;-62
2022/08/20 00:24:25;;;;;;;;;11.60;9.80;;;;;21.39;57.55;99736.56;5074932;28;8848;-62
2022/08/20 00:26:52;;;;;;;;;15.60;14.20;;;;;21.39;57.65;99730.31;5088541;28;8837;-63
2022/08/20 00:29:20;;;;;;;;;15.20;11.60;;;;;21.39;58.00;99741.13;5074403;28;8846;-63
2022/08/20 00:31:48;;;;;;;;;12.00;11.00;;;;;21.38;58.31;99744.88;5074682;28;8929;-63
2022/08/20 00:34:16;;;;;;;;;10.40;8.80;;;;;21.38;58.48;99743.03;5074946;28;8843;-63
2022/08/20 00:36:44;;;;;;;;;14.40;11.60;;;;;21.34;58.35;99738.19;5078549;28;8982;-63
2022/08/20 00:39:12;;;;;;;;;8.80;8.20;;;;;21.30;58.51;99739.59;5095428;28;8830;-63
2022/08/20 00:41:39;;;;;;;;;14.40;14.20;;;;;21.23;58.52;99738.72;5098634;28;8872;-62
2022/08/20 00:44:07;;;;;;;;;7.60;7.60;;;;;21.18;59.07;99733.88;5098367;28;9472;-62
2022/08/20 00:46:35;;;;;;;;;18.80;15.60;;;;;21.13;59.16;99740.91;5098582;28;8830;-63
2022/08/20 00:49:04;;;;;;;;;11.00;11.00;;;;;21.06;59.33;99740.88;5081087;28;8885;-62
2022/08/20 00:51:32;;;;;;;;;12.00;11.00;;;;;20.99;59.60;99750.78;5077855;28;8943;-64
2022/08/20 00:54:00;;;;;;;;;15.80;14.40;;;;;20.98;59.89;99748.25;5078309;28;8824;-63
2022/08/20 00:56:27;;;;;;;;;12.00;11.40;;;;;20.88;60.35;99742.34;5077999;28;8917;-63
2022/08/20 00:58:55;;;;;;;;;11.80;11.60;;;;;20.76;60.66;99738.41;5091660;28;8944;-63
2022/08/20 01:01:23;;;;;;;;;12.00;10.80;;;;;20.71;60.38;99746.25;5097700;28;8833;-64
2022/08/20 01:03:55;;;;;;;;;11.20;8.20;;;;;20.69;60.56;99742.09;5098331;28;8829;-68
2022/08/20 01:06:23;;;;;;;;;9.80;8.80;;;;;20.65;60.65;99747.06;5098329;28;8834;-62
2022/08/20 01:08:51;;;;;;;;;11.60;8.80;;;;;20.65;60.75;99738.06;5082454;28;8820;-62
2022/08/20 01:11:21;;;;;;;;;11.80;11.40;;;;;20.66;61.05;99747.88;5077555;28;8843;-62
2022/08/20 01:13:49;;;;;;;;;9.60;8.60;;;;;20.65;60.82;99762.44;5077607;28;8824;-62
2022/08/20 01:16:17;;;;;;;;;11.80;10.20;;;;;20.65;61.15;99762.44;5077107;28;8862;-63
2022/08/20 01:18:45;;;;;;;;;12.40;9.80;;;;;20.64;60.89;99758.88;5090001;28;8948;-63
2022/08/20 01:21:13;;;;;;;;;11.80;11.80;;;;;20.65;60.75;99765.16;5096540;28;8850;-62
2022/08/20 01:23:39;;;;;;;;;10.20;9.20;;;;;20.66;61.55;99764.97;5096283;28;8830;-63
2022/08/20 01:26:07;;;;;;;;;8.20;7.60;;;;;20.66;61.48;99762.25;5096720;28;8822;-63
2022/08/20 01:28:35;;;;;;;;;9.80;9.20;;;;;20.67;61.24;99763.94;5096078;28;8840;-63
2022/08/20 01:31:03;;;;;;;;;13.20;11.00;;;;;20.67;61.31;99766.63;5082759;28;8832;-62
2022/08/20 01:33:31;;;;;;;;;10.60;9.20;;;;;20.63;61.73;99770.75;5076468;28;9590;-63
2022/08/20 01:35:59;;;;;;;;;5.80;5.40;;;;;20.55;61.63;99770.03;5076636;28;8852;-63
2022/08/20 01:38:27;;;;;;;;;5.40;4.00;;;;;20.47;62.32;99770.97;5076885;28;8881;-63
2022/08/20 01:40:55;;;;;;;;;5.40;4.60;;;;;20.38;62.32;99772.09;5077236;28;8832;-63
2022/08/20 01:43:23;;;;;;;;;2.40;2.00;;;;;20.34;63.02;99764.53;5077407;28;8828;-63
2022/08/20 01:45:52;;;;;;;;;1.20;1.20;;;;;20.22;63.25;99760.63;5092049;28;8849;-64
2022/08/20 01:48:19;;;;;;;;;1.20;1.20;;;;;20.07;63.90;99763.34;5095217;28;8823;-66
2022/08/20 01:50:48;;;;;;;;;1.20;1.20;;;;;19.97;64.40;99765.47;5095599;28;8837;-63
2022/08/20 01:53:15;;;;;;;;;1.00;1.00;;;;;19.90;64.16;99767.25;5096188;28;8851;-62
2022/08/20 01:55:43;;;;;;;;;1.00;1.00;;;;;19.84;64.38;99764.41;5097307;28;8948;-63
2022/08/20 01:58:10;;;;;;;;;1.00;1.00;;;;;19.79;64.43;99762.28;5097116;28;8850;-64
2022/08/20 02:00:39;;;;;;;;;1.00;1.00;;;;;19.75;64.54;99763.69;5093284;28;8833;-63
2022/08/20 02:03:07;;;;;;;;;1.00;1.00;;;;;19.74;64.18;99772.81;5075837;28;8882;-64
2022/08/20 02:05:35;;;;;;;;;0.40;0.20;;;;;19.72;64.71;99774.03;5075491;28;8836;-63
2022/08/20 02:08:02;;;;;;;;;0.80;0.80;;;;;19.68;64.77;99781.66;5076008;28;8832;-63
2022/08/20 02:10:31;;;;;;;;;1.00;0.00;;;;;19.66;64.46;99775.56;5077158;28;8839;-63
2022/08/20 02:12:58;;;;;;;;;0.20;0.20;;;;;19.65;64.96;99773.91;5076923;28;8957;-63
2022/08/20 02:15:26;;;;;;;;;0.80;0.60;;;;;19.63;64.43;99767.84;5076560;28;8824;-62
2022/08/20 02:18:03;;;;;;;;;1.00;1.00;;;;;19.64;64.96;99768.69;5075813;28;8840;-63
2022/08/20 02:20:34;;;;;;;;;1.00;1.00;;;;;19.65;64.46;99773.91;5090128;28;8814;-63
2022/08/20 02:23:02;;;;;;;;;1.00;1.00;;;;;19.67;64.88;99771.88;5096663;28;8810;-63
2022/08/20 02:25:30;;;;;;;;;3.60;1.80;;;;;19.71;64.23;99775.03;5096483;28;8849;-62
2022/08/20 02:27:59;;;;;;;;;1.40;1.00;;;;;19.74;64.18;99772.81;5096977;28;9507;-63
2022/08/20 02:30:27;;;;;;;;;4.40;4.00;;;;;19.78;64.27;99768.69;5096637;28;8838;-63
2022/08/20 02:32:55;;;;;;;;;2.00;2.00;;;;;19.82;64.27;99774.59;5095290;28;8888;-63
2022/08/20 02:35:23;;;;;;;;;4.00;4.00;;;;;19.87;64.42;99775.69;5094623;28;8838;-62
2022/08/20 02:37:50;;;;;;;;;2.00;2.00;;;;;19.92;64.35;99769.72;5095256;28;8846;-62
2022/08/20 02:40:19;;;;;;;;;5.80;5.00;;;;;19.96;64.22;99777.28;5083182;28;8847;-64
2022/08/20 02:42:57;;;;;;;;;4.40;4.40;;;;;20.02;63.70;99781.97;5076131;28;8832;-63
2022/08/20 02:45:25;;;;;;;;;3.20;3.20;;;;;20.04;63.90;99777.19;5076307;28;8836;-63
2022/08/20 02:47:55;;;;;;;;;5.00;5.00;;;;;20.07;63.71;99782.28;5076094;28;8843;-65
2022/08/20 02:50:23;;;;;;;;;7.00;6.60;;;;;20.11;63.46;99785.44;5076040;28;8832;-65
2022/08/20 02:52:50;;;;;;;;;3.20;2.00;;;;;20.14;63.94;99783.22;5075451;28;8947;-64
2022/08/20 02:55:18;;;;;;;;;9.20;8.80;;;;;20.18;63.68;99776.38;5075754;28;8893;-63
2022/08/20 02:57:54;;;;;;;;;7.20;7.20;;;;;20.21;63.72;99781.44;5075432;28;8828;-64
2022/08/20 03:00:25;;;;;;;;;10.80;10.00;;;;;20.21;63.86;99777.88;5074580;28;8832;-62
2022/08/20 03:02:52;;;;;;;;;15.60;13.60;;;;;20.21;63.73;99786.00;5092786;28;8854;-62
2022/08/20 03:05:20;;;;;;;;;15.00;12.40;;;;;20.19;63.68;99783.47;5094871;28;8830;-63
2022/08/20 03:07:48;;;;;;;;;11.00;8.20;;;;;20.18;63.96;99781.81;5095229;28;8837;-63
2022/08/20 03:10:16;;;;;;;;;11.40;10.20;;;;;20.19;64.20;99777.25;5095342;28;8964;-64
2022/08/20 03:12:44;;;;;;;;;11.40;10.60;;;;;20.17;64.30;99777.41;5094701;28;8834;-64
2022/08/20 03:15:14;;;;;;;;;14.00;12.40;;;;;20.16;64.31;99770.34;5095276;28;8810;-63
2022/08/20 03:17:44;;;;;;;;;9.80;9.00;;;;;20.14;64.34;99764.28;5095696;28;8919;-63
2022/08/20 03:20:12;;;;;;;;;13.40;11.40;;;;;20.13;64.42;99765.31;5095365;28;8865;-63
2022/08/20 03:22:40;;;;;;;;;14.00;14.00;;;;;20.07;64.95;99757.94;5095895;28;8865;-63
2022/08/20 03:25:07;;;;;;;;;11.40;11.00;;;;;20.05;64.85;99759.16;5093856;28;8822;-63
2022/08/20 03:27:35;;;;;;;;;10.00;9.40;;;;;20.01;65.02;99753.25;5095720;28;8842;-63
2022/08/20 03:30:03;;;;;;;;;17.00;15.40;;;;;20.00;65.08;99753.41;5095116;28;8848;-68
2022/08/20 03:32:31;;;;;;;;;22.20;17.80;;;;;19.98;64.86;99752.78;5095493;28;8865;-63
2022/08/20 03:34:58;;;;;;;;;18.60;16.80;;;;;19.97;65.17;99751.94;5095777;28;8852;-63
2022/08/20 03:37:26;;;;;;;;;18.00;15.80;;;;;19.97;65.29;99745.69;5096020;28;9561;-63
2022/08/20 03:39:55;;;;;;;;;18.00;16.60;;;;;19.97;65.51;99751.94;5095386;28;8822;-63
2022/08/20 03:42:23;;;;;;;;;17.40;13.60;;;;;19.96;65.20;99757.53;5095871;28;8948;-63
2022/08/20 03:44:51;;;;;;;;;18.80;17.00;;;;;19.95;65.00;99764.78;5096031;28;8845;-64
2022/08/20 03:47:25;;;;;;;;;12.40;10.60;;;;;19.94;65.48;99760.41;5095363;28;8837;-63
2022/08/20 03:49:54;;;;;;;;;19.40;14.60;;;;;19.94;65.42;99752.31;5095189;28;8964;-63
2022/08/20 03:52:22;;;;;;;;;17.60;16.00;;;;;19.92;65.40;99754.38;5093391;28;8844;-63
2022/08/20 03:54:50;;;;;;;;;18.80;16.20;;;;;19.91;65.89;99763.50;5095341;28;8840;-67
2022/08/20 03:57:17;;;;;;;;;14.80;14.40;;;;;19.89;65.69;99765.53;5095244;28;8856;-63
2022/08/20 03:59:46;;;;;;;;;18.00;16.80;;;;;19.87;66.19;99773.00;5095135;28;8822;-64
2022/08/20 04:02:21;;;;;;;;;21.00;18.60;;;;;19.86;66.15;99760.50;5095041;28;8842;-63
2022/08/20 04:04:49;;;;;;;;;22.80;20.60;;;;;19.83;66.33;99758.19;5093055;28;8829;-63
2022/08/20 04:07:17;;;;;;;;;19.00;14.40;;;;;19.81;65.90;99760.22;5093375;28;8850;-63
2022/08/20 04:09:45;;;;;;;;;14.20;13.20;;;;;19.80;66.54;99755.84;5095218;28;8838;-63
2022/08/20 04:12:13;;;;;;;;;20.20;17.40;;;;;19.78;66.51;99766.00;5098780;28;8860;-63
2022/08/20 04:14:41;;;;;;;;;19.20;16.60;;;;;19.75;66.88;99762.81;5098794;28;9515;-63
2022/08/20 04:17:09;;;;;;;;;21.20;20.00;;;;;19.73;66.47;99767.59;5098303;28;8838;-63
2022/08/20 04:19:37;;;;;;;;;12.80;10.20;;;;;19.70;66.78;99766.09;5084604;28;8813;-63
2022/08/20 04:22:05;;;;;;;;;19.60;14.40;;;;;19.68;66.74;99760.03;5078540;28;8860;-63
2022/08/20 04:24:32;;;;;;;;;16.60;13.60;;;;;19.67;66.49;99763.75;5078747;28;8862;-63
2022/08/20 04:27:01;;;;;;;;;17.20;16.00;;;;;19.66;66.65;99772.88;5078423;28;8887;-63
2022/08/20 04:29:29;;;;;;;;;21.20;19.20;;;;;19.65;67.19;99771.19;5078607;28;8853;-63
2022/08/20 04:31:59;;;;;;;;;15.60;15.40;;;;;19.63;67.22;99775.94;5077941;28;8857;-63
2022/08/20 04:34:29;;;;;;;;;10.80;9.60;;;;;19.61;66.81;99771.75;5078976;28;9703;-63
2022/08/20 04:36:57;;;;;;;;;20.00;16.40;;;;;19.62;67.11;99779.69;5078312;28;8846;-62
2022/08/20 04:39:25;;;;;;;;;20.80;17.00;;;;;19.64;67.15;99782.22;5078197;28;8905;-63
2022/08/20 04:41:52;;;;;;;;;16.60;16.00;;;;;19.64;66.94;99783.03;5078349;28;8824;-63
2022/08/20 04:44:21;;;;;;;;;23.00;19.80;;;;;19.66;66.80;99790.97;5077298;28;8986;-63
2022/08/20 04:46:49;;;;;;;;;16.60;15.80;;;;;19.67;66.87;99796.19;5077589;28;8851;-63
2022/08/20 04:49:17;;;;;;;;;20.40;18.80;;;;;19.71;67.32;99796.66;5078708;28;8816;-63
2022/08/20 04:51:45;;;;;;;;;17.40;13.40;;;;;19.74;66.91;99804.38;5078370;28;8848;-63
2022/08/20 04:54:13;;;;;;;;;13.20;12.00;;;;;19.76;66.97;99803.19;5077465;28;8840;-64
2022/08/20 04:56:41;;;;;;;;;12.00;10.60;;;;;19.79;66.77;99816.31;5077927;28;8839;-63
2022/08/20 04:59:09;;;;;;;;;26.60;20.20;;;;;19.82;66.96;99813.28;5078104;28;8843;-63
2022/08/20 05:01:36;;;;;;;;;15.20;13.40;;;;;19.85;66.55;99818.31;5077276;28;8925;-63
2022/08/20 05:04:04;;;;;;;;;22.20;19.60;;;;;19.88;67.02;99828.72;5077739;28;8827;-63
2022/08/20 05:06:32;;;;;;;;;13.20;9.20;;;;;19.93;66.96;99825.47;5077588;28;8842;-63
2022/08/20 05:09:00;;;;;;;;;18.60;17.00;;;;;19.97;66.89;99827.66;5077155;28;8840;-63
2022/08/20 05:11:28;;;;;;;;;14.80;14.40;;;;;20.02;66.57;99829.81;5077378;28;8847;-62
2022/08/20 05:14:02;;;;;;;;;21.00;16.00;;;;;20.05;66.34;99830.31;5077230;28;8824;-63
2022/08/20 05:16:36;;;;;;;;;17.80;14.40;;;;;20.07;66.27;99830.09;5076886;28;8910;-63
2022/08/20 05:19:04;;;;;;;;;21.00;14.40;;;;;20.07;66.34;99833.66;5089476;28;8840;-62
2022/08/20 05:21:31;;;;;;;;;20.00;17.60;;;;;20.07;66.51;99836.34;5097328;28;8984;-63
2022/08/20 05:24:01;;;;;;;;;19.00;17.40;;;;;20.10;66.45;99843.28;5097740;28;8826;-63
2022/08/20 05:26:28;;;;;;;;;19.20;15.40;;;;;20.10;66.76;99844.09;5097616;28;8829;-63
2022/08/20 05:28:56;;;;;;;;;22.80;20.40;;;;;20.11;66.44;99851.19;5096985;28;8842;-63
2022/08/20 05:31:25;;;;;;;;;21.40;19.40;;;;;20.10;66.49;99838.69;5097752;28;8826;-64
2022/08/20 05:33:59;;;;;;;;;17.40;15.60;;;;;20.12;66.67;99836.66;5096448;28;8833;-62
2022/08/20 05:36:27;;;;;;;;;21.40;19.00;;;;;20.13;66.39;99826.66;5097320;28;8856;-63
2022/08/20 05:38:55;;;;;;;;;21.00;18.40;;;;;20.14;66.76;99826.47;5097353;28;8834;-63
2022/08/20 05:41:22;;;;;;;;;20.80;18.60;;;;;20.18;66.40;99833.19;5097566;28;8838;-63
2022/08/20 05:43:56;;;;;;;;;12.00;9.20;;;;;20.21;66.67;99835.53;5097860;28;8838;-62
2022/08/20 05:46:23;;;;;;;;;19.20;15.80;;;;;20.25;66.47;99833.31;5096452;28;8834;-63
2022/08/20 05:48:51;;;;;;;;;18.40;14.00;;;;;20.28;66.72;99830.22;5094437;28;8814;-63
2022/08/20 05:51:19;;;;;;;;;23.20;18.80;;;;;20.30;66.76;99829.00;5095480;28;8961;-63
2022/08/20 05:53:47;;;;;;;;;22.40;16.60;;;;;20.29;66.66;99827.34;5075542;28;8848;-64
2022/08/20 05:56:14;;;;;;;;;19.80;16.80;;;;;20.32;67.21;99836.94;5075309;28;8930;-64
2022/08/20 05:58:43;;;;;;;;;17.40;15.20;;;;;20.31;66.57;99830.69;5074889;28;8840;-62
2022/08/20 06:01:10;;;;;;;;;23.20;20.40;;;;;20.34;66.70;99834.88;5073929;28;8846;-63
2022/08/20 06:06:23;;;;;;;;;15.00;13.80;;;;;20.38;67.23;99830.75;5073913;28;8993;-63
2022/08/20 06:09:11;;;;;;;;;20.20;17.40;;;;;20.40;66.82;99826.03;5073365;28;8868;-63
2022/08/20 06:11:39;;;;;;;;;24.80;20.80;;;;;20.44;66.61;99830.00;5073704;28;8844;-63
2022/08/20 06:14:06;;;;;;;;;10.40;8.80;;;;;20.49;66.65;99833.84;5074413;28;9065;-63
2022/08/20 06:16:35;;;;;;;;;17.20;15.60;;;;;20.57;66.27;99836.47;5074144;28;8975;-63
2022/08/20 06:19:03;;;;;;;;;18.40;16.00;;;;;20.65;66.29;99825.53;5089262;28;9506;-64
2022/08/20 06:21:31;;;;;;;;;23.60;21.20;;;;;20.71;66.19;99832.88;5095728;28;8857;-63
2022/08/20 06:23:59;;;;;;;;;21.00;20.20;;;;;20.75;65.97;99835.00;5095663;28;9507;-63
2022/08/20 06:26:28;;;;;;;;;21.00;17.00;;;;;20.79;66.28;99833.63;5095674;28;8958;-63
2022/08/20 06:28:57;;;;;;;;;13.20;12.00;;;;;20.78;65.90;99828.38;5095588;28;8841;-63
2022/08/20 06:31:26;;;;;;;;;18.00;16.20;;;;;20.78;66.27;99831.09;5094952;28;9551;-63
2022/08/20 06:33:54;;;;;;;;;22.00;18.20;;;;;20.81;66.45;99828.03;5094082;28;8848;-63
2022/08/20 06:36:21;;;;;;;;;26.40;24.20;;;;;20.82;66.21;99827.81;5095071;28;8836;-63
2022/08/20 06:38:49;;;;;;;;;20.80;16.80;;;;;20.82;66.53;99829.69;5094933;28;8852;-63
2022/08/20 06:41:17;;;;;;;;;25.20;21.60;;;;;20.81;66.51;99836.16;5096804;28;8846;-63
2022/08/20 06:43:45;;;;;;;;;24.60;20.00;;;;;20.78;66.75;99829.25;5095922;28;8830;-64
2022/08/20 06:46:13;;;;;;;;;27.00;23.60;;;;;20.78;66.31;99839.22;5093203;28;8937;-63
2022/08/20 06:48:41;;;;;;;;;21.40;18.00;;;;;20.74;66.46;99832.53;5095988;28;8834;-63
2022/08/20 06:51:09;;;;;;;;;26.40;20.60;;;;;20.67;67.44;99837.00;5095745;28;8976;-63
2022/08/20 06:53:37;;;;;;;;;25.40;22.20;;;;;20.60;67.76;99841.50;5096136;28;8990;-63
2022/08/20 06:56:05;;;;;;;;;21.60;19.20;;;;;20.55;68.00;99843.91;5095799;28;8864;-64
2022/08/20 06:58:33;;;;;;;;;28.60;21.60;;;;;20.52;67.92;99846.16;5095573;28;8960;-64
2022/08/20 07:01:05;;;;;;;;;22.60;20.80;;;;;20.46;68.37;99842.34;5095946;28;8904;-64
2022/08/20 07:03:37;;;;;;;;;17.20;15.80;;;;;20.38;68.97;99850.56;5095542;28;8842;-63
2022/08/20 07:06:04;;;;;;;;;21.80;20.20;;;;;20.35;68.85;99847.38;5094794;28;8969;-64
2022/08/20 07:08:32;;;;;;;;;22.80;19.20;;;;;20.34;68.86;99860.06;5095121;28;8869;-64
2022/08/20 07:11:00;;;;;;;;;19.80;16.40;;;;;20.32;68.40;99864.81;5095357;28;8822;-64
2022/08/20 07:13:28;;;;;;;;;15.80;15.80;;;;;20.29;68.78;99870.59;5095565;28;8830;-64
2022/08/20 07:15:56;;;;;;;;;16.80;15.60;;;;;20.22;68.70;99868.81;5087592;28;8934;-65
2022/08/20 07:18:24;;;;;;;;;12.40;11.20;;;;;20.17;68.86;99872.06;5075870;28;8832;-63
2022/08/20 07:20:55;;;;;;;;;22.80;20.60;;;;;20.14;69.26;99867.06;5074771;28;8856;-64
2022/08/20 07:23:23;;;;;;;;;13.40;11.80;;;;;20.14;68.86;99869.75;5074917;28;8844;-63
2022/08/20 07:25:51;;;;;;;;;14.40;14.00;;;;;20.07;68.96;99862.53;5075482;28;8831;-63
2022/08/20 07:28:19;;;;;;;;;12.00;10.60;;;;;19.98;69.94;99869.88;5075233;28;8836;-63
2022/08/20 07:33:42;;;;;;;;;14.40;12.60;;;;;19.87;70.09;99873.00;5074886;28;8979;-63
2022/08/20 07:36:11;;;;;;;;;14.60;12.80;;;;;19.83;69.86;99871.72;5074746;28;8836;-63
2022/08/20 07:38:39;;;;;;;;;15.60;14.20;;;;;19.82;70.26;99871.88;5075354;28;8844;-63
2022/08/20 07:41:06;;;;;;;;;16.20;12.80;;;;;19.81;70.79;99867.50;5074899;28;9494;-63
2022/08/20 07:43:34;;;;;;;;;20.20;17.00;;;;;19.79;70.87;99874.97;5074230;28;8909;-63
2022/08/20 07:46:06;;;;;;;;;13.20;13.00;;;;;19.82;70.87;99875.44;5086146;28;8961;-62
2022/08/20 07:48:34;;;;;;;;;17.00;16.20;;;;;19.89;70.71;99876.38;5099108;28;8850;-63
2022/08/20 07:51:03;;;;;;;;;20.20;17.40;;;;;19.98;70.22;99878.00;5098908;28;8852;-62
2022/08/20 07:53:33;;;;;;;;;17.40;14.20;;;;;20.09;70.29;99888.38;5099188;28;8911;-63
2022/08/20 07:56:04;;;;;;;;;16.80;13.00;;;;;20.20;70.00;99882.53;5099126;28;8852;-63
2022/08/20 07:58:34;;;;;;;;;13.60;11.80;;;;;20.38;69.93;99879.47;5099230;28;8846;-64
2022/08/20 08:01:02;;;;;;;;;18.00;15.00;;;;;20.56;69.33;99883.47;5098727;28;8834;-63
2022/08/20 08:03:30;;;;;;;;;14.00;13.80;;;;;20.72;68.87;99882.47;5095105;28;8852;-63
2022/08/20 08:06:15;;;;;;;;;14.60;14.20;;;;;20.96;67.90;99877.59;5078183;28;8836;-63
2022/08/20 08:08:55;;;;;;;;;16.40;13.80;;;;;21.17;67.66;99874.91;5078590;28;8947;-63
2022/08/20 08:11:23;;;;;;;;;17.20;15.00;;;;;21.32;67.86;99873.00;5078081;28;8909;-63
2022/08/20 08:13:51;;;;;;;;;14.80;13.00;;;;;21.41;67.42;99867.28;5091727;28;9732;-62
2022/08/20 08:16:19;;;;;;;;;17.80;17.60;;;;;21.50;67.41;99881.56;5098406;28;8944;-63
2022/08/20 08:18:47;;;;;;;;;14.00;11.60;;;;;21.58;67.07;99871.44;5098160;28;8945;-62
2022/08/20 08:21:15;;;;;;;;;14.20;11.40;;;;;21.59;66.82;99878.53;5097814;28;9503;-63
2022/08/20 08:23:43;;;;;;;;;14.80;12.00;;;;;21.63;66.92;99879.81;5098027;28;8830;-63
2022/08/20 08:26:13;;;;;;;;;11.20;10.60;;;;;21.65;67.04;99868.78;5097241;28;8968;-62
2022/08/20 08:28:44;;;;;;;;;12.40;12.20;;;;;21.70;67.19;99869.06;5080816;28;8816;-63
2022/08/20 08:31:11;;;;;;;;;17.00;13.00;;;;;21.75;66.86;99872.03;5077175;28;8832;-63
2022/08/20 08:33:39;;;;;;;;;11.60;9.80;;;;;21.84;66.69;99873.56;5076667;28;8974;-64
2022/08/20 08:36:08;;;;;;;;;5.40;5.40;;;;;21.96;66.62;99877.44;5077234;28;8832;-63
2022/08/20 08:38:37;;;;;;;;;15.80;14.00;;;;;22.10;65.97;99876.50;5076128;28;8832;-62
2022/08/20 08:41:05;;;;;;;;;19.60;16.40;;;;;22.24;65.87;99879.09;5077296;28;9042;-62
2022/08/20 08:43:33;;;;;;;;;16.40;15.60;;;;;22.35;66.04;99884.00;5076810;28;9548;-63
2022/08/20 08:46:01;;;;;;;;;12.40;10.80;;;;;22.37;65.78;99878.34;5076852;28;8835;-62
2022/08/20 08:48:30;;;;;;;;;10.80;10.80;;;;;22.35;65.94;99880.44;5076494;28;8840;-62
2022/08/20 08:50:58;;;;;;;;;18.40;16.00;;;;;22.32;66.17;99870.81;5076380;28;9682;-63
2022/08/20 08:53:26;;;;;;;;;17.20;14.40;;;;;22.28;66.15;99879.53;5076554;28;9667;-63
2022/08/20 08:55:54;;;;;;;;;15.00;12.80;;;;;22.26;66.58;99892.47;5076210;28;8864;-63
2022/08/20 08:58:22;;;;;;;;;13.00;12.00;;;;;22.33;66.31;99896.09;5083407;28;8848;-62
2022/08/20 09:00:49;;;;;;;;;17.40;13.00;;;;;22.44;65.78;99890.13;5076775;28;8828;-63
2022/08/20 09:03:23;;;;;;;;;14.40;12.60;;;;;22.56;65.48;99892.13;5088641;28;8838;-62
2022/08/20 09:05:51;;;;;;;;;15.20;13.80;;;;;22.66;65.49;99895.28;5076776;28;8930;-61
2022/08/20 09:08:19;;;;;;;;;13.00;11.60;;;;;22.72;65.34;99904.50;5076016;28;8920;-62
2022/08/20 09:10:47;;;;;;;;;15.20;15.20;;;;;22.73;64.94;99904.31;5076295;28;8824;-62
2022/08/20 09:13:15;;;;;;;;;17.40;13.60;;;;;22.78;64.92;99909.97;5076397;28;8850;-61
2022/08/20 09:15:42;;;;;;;;;18.80;16.40;;;;;22.92;64.67;99902.75;5077355;28;8883;-62
2022/08/20 09:18:10;;;;;;;;;19.00;15.40;;;;;22.99;64.87;99903.63;5077920;28;8820;-62
2022/08/20 09:20:38;;;;;;;;;18.20;14.80;;;;;23.06;64.67;99891.72;5076205;28;9512;-62
2022/08/20 09:23:06;;;;;;;;;13.60;13.20;;;;;23.22;64.79;99899.56;5076325;28;9538;-62
2022/08/20 09:25:34;;;;;;;;;17.40;16.00;;;;;23.45;64.00;99904.66;5058557;28;8839;-62
2022/08/20 09:28:01;;;;;;;;;14.80;14.80;;;;;23.64;63.86;99903.84;5075865;28;8840;-62
2022/08/20 09:30:30;;;;;;;;;16.20;13.20;;;;;23.72;63.62;99909.09;5076831;28;8961;-63
2022/08/20 09:32:58;;;;;;;;;16.00;15.20;;;;;23.72;63.22;99911.81;5075700;28;9562;-62
2022/08/20 09:35:25;;;;;;;;;18.80;16.00;;;;;23.70;64.01;99903.03;5075616;28;8855;-61
2022/08/20 09:37:53;;;;;;;;;13.60;12.40;;;;;23.74;63.67;99907.03;5068550;28;8867;-62
2022/08/20 09:40:21;;;;;;;;;9.60;8.60;;;;;23.96;63.43;99900.38;5076390;28;8921;-62
2022/08/20 09:42:49;;;;;;;;;17.60;16.20;;;;;24.17;62.61;99900.16;5076160;28;8847;-65
2022/08/20 09:45:17;;;;;;;;;16.40;16.00;;;;;24.45;62.20;99898.91;5076181;28;9627;-63
2022/08/20 09:47:45;;;;;;;;;17.60;14.00;;;;;24.56;61.76;99894.72;5076506;28;8936;-63
2022/08/20 09:50:23;;;;;;;;;16.40;15.00;;;;;24.55;61.99;99893.00;5075739;28;8954;-62
2022/08/20 09:52:51;;;;;;;;;17.80;15.40;;;;;24.95;61.88;99897.34;5076349;28;8924;-63
2022/08/20 09:55:20;;;;;;;;;13.00;9.80;;;;;25.38;60.39;99895.69;5076866;28;8862;-63
2022/08/20 09:57:48;;;;;;;;;14.40;11.20;;;;;25.71;59.96;99891.72;5075566;28;8991;-63
2022/08/20 10:00:15;;;;;;;;;13.00;11.60;;;;;26.14;59.14;99882.63;5075902;28;8839;-63
2022/08/20 10:02:43;;;;;;;;;16.20;14.80;;;;;26.80;57.65;99880.91;5076256;28;8878;-62
2022/08/20 10:05:11;;;;;;;;;17.60;15.60;;;;;27.34;56.87;99882.78;5074818;28;8964;-62
2022/08/20 10:07:38;;;;;;;;;13.40;13.40;;;;;27.84;55.91;99887.75;5074954;28;8848;-63
2022/08/20 10:10:06;;;;;;;;;14.60;12.40;;;;;28.29;55.35;99880.69;5075803;28;8989;-63
2022/08/20 10:12:34;;;;;;;;;5.20;5.20;;;;;28.77;54.16;99886.81;5076501;28;8844;-64
2022/08/20 10:15:02;;;;;;;;;13.20;12.20;;;;;29.05;53.61;99894.31;5075754;28;8824;-63
2022/08/20 10:17:30;;;;;;;;;7.40;6.00;;;;;29.26;53.64;99891.72;5075688;28;8851;-63
2022/08/20 10:19:58;;;;;;;;;10.00;9.80;;;;;29.39;53.40;99893.34;5076039;28;8839;-63
2022/08/20 10:22:26;;;;;;;;;10.00;9.80;;;;;29.84;52.54;99888.75;5075977;28;8859;-63
2022/08/20 10:24:53;;;;;;;;;14.20;12.80;;;;;29.96;52.11;99893.09;5075330;28;8852;-62
2022/08/20 10:27:21;;;;;;;;;13.40;10.20;;;;;29.38;53.68;99895.28;5090821;28;8822;-62
2022/08/20 10:29:49;;;;;;;;;12.40;11.00;;;;;28.69;55.12;99903.63;5094902;28;9914;-63
2022/08/20 10:32:17;;;;;;;;;10.60;10.60;;;;;28.31;55.50;99892.25;5094874;28;9602;-63
2022/08/20 10:34:47;;;;;;;;;8.20;7.80;;;;;28.13;55.80;99892.34;5095286;28;8842;-66
2022/08/20 10:37:15;;;;;;;;;12.80;10.20;;;;;28.06;55.93;99896.28;5095406;28;8842;-62
2022/08/20 10:39:43;;;;;;;;;12.80;11.80;;;;;27.51;57.49;99901.09;5094109;28;8879;-63
2022/08/20 10:42:10;;;;;;;;;11.20;10.00;;;;;26.85;59.11;99900.19;5095449;28;8814;-63
2022/08/20 10:44:38;;;;;;;;;18.60;16.60;;;;;26.46;58.93;99906.06;5094850;28;8853;-62
2022/08/20 10:47:06;;;;;;;;;17.40;14.80;;;;;27.06;57.89;99897.00;5095419;28;8853;-64
2022/08/20 10:49:34;;;;;;;;;14.60;13.40;;;;;27.97;55.77;99883.97;5095228;28;8948;-62
2022/08/20 10:52:02;;;;;;;;;16.00;15.00;;;;;28.84;54.51;99882.00;5094458;28;8967;-63
2022/08/20 10:54:32;;;;;;;;;13.20;11.80;;;;;29.74;52.13;99883.91;5095648;28;8838;-63
2022/08/20 10:57:01;;;;;;;;;16.80;16.40;;;;;30.54;50.64;99878.97;5092856;28;8945;-63
2022/08/20 10:59:29;;;;;;;;;23.20;18.60;;;;;31.04;49.75;99886.06;5094938;28;8879;-63
2022/08/20 11:01:57;;;;;;;;;28.40;25.00;;;;;30.48;50.83;99891.78;5094371;28;8943;-63
2022/08/20 11:04:24;;;;;;;;;27.60;24.80;;;;;29.42;53.07;99899.19;5094809;28;8851;-63
2022/08/20 11:06:52;;;;;;;;;30.60;27.80;;;;;28.64;54.79;99903.50;5093977;28;8868;-63
2022/08/20 11:09:20;;;;;;;;;29.00;25.60;;;;;28.60;54.86;99902.28;5093348;28;8980;-65
2022/08/20 11:11:48;;;;;;;;;26.20;22.20;;;;;29.21;53.38;99902.59;5094587;28;8968;-63
2022/08/20 11:14:16;;;;;;;;;31.80;27.20;;;;;29.66;52.77;99909.00;5094531;28;8850;-63
2022/08/20 11:16:44;;;;;;;;;29.80;24.40;;;;;30.04;51.82;99895.44;5093907;28;8866;-62
2022/08/20 11:19:12;;;;;;;;;34.80;29.00;;;;;29.87;51.85;99905.56;5094157;28;8846;-63
2022/08/20 11:21:39;;;;;;;;;32.40;26.40;;;;;29.55;52.54;99909.91;5094572;28;8968;-63
2022/08/20 11:24:07;;;;;;;;;34.80;30.20;;;;;29.30;53.05;99909.38;5094126;28;8865;-65
2022/08/20 11:26:35;;;;;;;;;28.00;24.40;;;;;29.78;51.90;99912.56;5091334;28;8837;-64
2022/08/20 11:29:03;;;;;;;;;30.60;28.00;;;;;30.39;50.25;99909.00;5094250;28;8822;-62
2022/08/20 11:31:30;;;;;;;;;33.00;25.40;;;;;30.64;49.68;99909.41;5094463;28;8878;-62
2022/08/20 11:33:58;;;;;;;;;34.40;30.00;;;;;31.02;49.38;99915.72;5095004;28;8854;-62
2022/08/20 11:36:26;;;;;;;;;16.60;13.20;;;;;30.98;48.81;99915.41;5095284;28;8880;-63
2022/08/20 11:38:54;;;;;;;;;31.20;28.00;;;;;31.21;48.37;99906.97;5094664;28;8834;-63
2022/08/20 11:41:22;;;;;;;;;32.00;29.00;;;;;31.49;48.02;99912.25;5094010;28;9519;-63